Strona główna
METAR-TAF:

METAR-TAF

Lotnisko :

Port lotniczy Pierre

Pierre, Dakota Południowa, Stany Zjednoczone

Szerokość geograficzna: 44-22-58N, Długość geograficzna: 100-17-09W, wysokość: 531 m

Aktualna obserwacja pogody

Raport powstał 13 minut temu, godzina 19:53 UTC
Wiatr 10 kt od północno-północny zachód
Temperatura -16°C
Wilgotność 65%
Ciśnienie 1035 hPa
Widzialność: 16.1 km
Przerywane chmury na wysokości 7000 ft

METAR: KPIR 191953Z AUTO 33010KT 10SM BKN070 M16/M21 A3057 RMK AO2 SLP398 T11611211

czas: 14:06 (20:06 UTC)

Prognoza

Raport powstał 2 godziny i 40 minut temu, godzina 17:26 UTC
Prognoza ważna od 19 godzina 18 UTC do 20 godzina 18 UTC
Wiatr 7 kt od północny zachód
Widzialność: 10 km
Przerywane chmury na wysokości 6000 ft
Od 20 godzina 0000 UTC
Wiatr 5 kt z kierunków zmiennych
Widzialność: 10 km
Rozproszone chmury na wysokości 25000 ft

TAF: KPIR 191726Z 1918/2018 32007KT P6SM BKN060 FM200000 VRB05KT P6SM SCT250

Obserwacja i prognoza pogody dla ponad 4000 lotnisk (raport METAR i TAF).

Dostępne stacje oznaczono żółtymi i czerwonymi punktami na mapie.

Najedź kursorem aby zobaczyć nazwę stacji.

Kliknij aby zobaczyć obserwacje i prognozy pogody.

Aby zmienić mapę: kliknij na zielony przycisk z czarnym krzyżykiem, aby powiększyć; na zielony przycisk z myślnikiem, aby pomniejszyć; na zielone strzałki, aby przejść do map sąsiednich.


METAR-TAF: